GRZ543 Details

Departure: Ted Stevens Anchorage International Airport (PANC)
Arrival: Edmonton International Airport (CYEG)
Route: YESKA NCA13 JAGIT NCA12 YPE J601 TETAG


Current Weather Information
PANC 260153Z 19009KT 10SM FEW050 FEW100 BKN190 09/M03 A3007 RMK AO2 SLP183 T00941028
CYEG 260200Z 34007KT 20SM FEW090 SCT120 BKN250 08/M11 A3007 RMK AC1AC2CI3 CONTRAILS SLP207